sensor_id;sensor_type;location;lat;lon;timestamp;P1;durP1;ratioP1;P2;durP2;ratioP2
8490;SDS011;4282;49.986;7.938;2023-03-31T00:00:11;6.63;;;1.77;;
8490;SDS011;4282;49.986;7.938;2023-03-31T00:02:40;6.57;;;2.23;;
8490;SDS011;4282;49.986;7.938;2023-03-31T00:05:10;5.77;;;1.83;;
8490;SDS011;4282;49.986;7.938;2023-03-31T00:07:42;4.70;;;1.70;;
8490;SDS011;4282;49.986;7.938;2023-03-31T00:10:12;5.40;;;1.83;;
8490;SDS011;4282;49.986;7.938;2023-03-31T00:12:46;4.90;;;1.50;;
8490;SDS011;4282;49.986;7.938;2023-03-31T00:15:14;5.00;;;1.70;;
8490;SDS011;4282;49.986;7.938;2023-03-31T00:17:42;3.57;;;1.53;;
8490;SDS011;4282;49.986;7.938;2023-03-31T00:20:11;3.67;;;1.50;;
8490;SDS011;4282;49.986;7.938;2023-03-31T00:22:40;6.77;;;2.17;;
8490;SDS011;4282;49.986;7.938;2023-03-31T00:25:11;5.33;;;2.10;;
8490;SDS011;4282;49.986;7.938;2023-03-31T00:27:40;5.07;;;1.57;;
8490;SDS011;4282;49.986;7.938;2023-03-31T00:30:12;3.47;;;1.20;;
8490;SDS011;4282;49.986;7.938;2023-03-31T00:32:40;4.87;;;1.57;;
8490;SDS011;4282;49.986;7.938;2023-03-31T00:35:08;4.20;;;1.53;;
8490;SDS011;4282;49.986;7.938;2023-03-31T00:37:37;6.33;;;1.53;;
8490;SDS011;4282;49.986;7.938;2023-03-31T00:40:07;2.73;;;1.57;;
8490;SDS011;4282;49.986;7.938;2023-03-31T00:42:38;5.00;;;1.50;;
8490;SDS011;4282;49.986;7.938;2023-03-31T00:48:00;4.03;;;2.03;;
8490;SDS011;4282;49.986;7.938;2023-03-31T00:50:34;7.47;;;1.53;;
8490;SDS011;4282;49.986;7.938;2023-03-31T00:53:04;4.07;;;1.77;;
8490;SDS011;4282;49.986;7.938;2023-03-31T00:55:36;4.77;;;1.63;;
8490;SDS011;4282;49.986;7.938;2023-03-31T00:58:05;4.33;;;2.07;;
8490;SDS011;4282;49.986;7.938;2023-03-31T01:00:41;7.63;;;1.60;;
8490;SDS011;4282;49.986;7.938;2023-03-31T01:03:09;5.03;;;1.83;;
8490;SDS011;4282;49.986;7.938;2023-03-31T01:05:38;5.27;;;1.80;;
8490;SDS011;4282;49.986;7.938;2023-03-31T01:08:09;3.90;;;2.03;;
8490;SDS011;4282;49.986;7.938;2023-03-31T01:10:39;4.60;;;1.70;;
8490;SDS011;4282;49.986;7.938;2023-03-31T01:13:11;4.23;;;1.60;;
8490;SDS011;4282;49.986;7.938;2023-03-31T01:15:43;3.83;;;1.80;;
8490;SDS011;4282;49.986;7.938;2023-03-31T01:18:11;6.20;;;2.20;;
8490;SDS011;4282;49.986;7.938;2023-03-31T01:20:47;7.73;;;1.80;;
8490;SDS011;4282;49.986;7.938;2023-03-31T01:23:32;7.13;;;2.03;;
8490;SDS011;4282;49.986;7.938;2023-03-31T01:29:03;4.37;;;1.53;;
8490;SDS011;4282;49.986;7.938;2023-03-31T01:31:49;4.23;;;1.60;;
8490;SDS011;4282;49.986;7.938;2023-03-31T01:34:38;5.17;;;1.67;;
8490;SDS011;4282;49.986;7.938;2023-03-31T01:37:32;5.07;;;1.77;;
8490;SDS011;4282;49.986;7.938;2023-03-31T01:40:34;4.53;;;1.57;;
8490;SDS011;4282;49.986;7.938;2023-03-31T01:43:11;3.43;;;1.50;;
8490;SDS011;4282;49.986;7.938;2023-03-31T01:45:46;5.27;;;1.87;;
8490;SDS011;4282;49.986;7.938;2023-03-31T01:48:19;4.87;;;1.50;;
8490;SDS011;4282;49.986;7.938;2023-03-31T01:50:50;4.77;;;1.87;;
8490;SDS011;4282;49.986;7.938;2023-03-31T01:53:22;2.90;;;1.57;;
8490;SDS011;4282;49.986;7.938;2023-03-31T01:56:00;7.57;;;2.13;;
8490;SDS011;4282;49.986;7.938;2023-03-31T01:58:31;7.03;;;2.20;;
8490;SDS011;4282;49.986;7.938;2023-03-31T02:01:04;4.53;;;1.63;;
8490;SDS011;4282;49.986;7.938;2023-03-31T02:03:36;5.27;;;2.10;;
8490;SDS011;4282;49.986;7.938;2023-03-31T02:06:07;7.43;;;2.23;;
8490;SDS011;4282;49.986;7.938;2023-03-31T02:08:38;5.80;;;2.20;;
8490;SDS011;4282;49.986;7.938;2023-03-31T02:11:11;10.20;;;2.30;;
8490;SDS011;4282;49.986;7.938;2023-03-31T02:13:41;8.53;;;2.27;;
8490;SDS011;4282;49.986;7.938;2023-03-31T02:16:12;8.43;;;2.10;;
8490;SDS011;4282;49.986;7.938;2023-03-31T02:18:43;7.70;;;2.07;;
8490;SDS011;4282;49.986;7.938;2023-03-31T02:21:14;7.20;;;2.33;;
8490;SDS011;4282;49.986;7.938;2023-03-31T02:23:43;6.27;;;2.00;;
8490;SDS011;4282;49.986;7.938;2023-03-31T02:26:14;5.23;;;2.20;;
8490;SDS011;4282;49.986;7.938;2023-03-31T02:28:44;4.03;;;2.10;;
8490;SDS011;4282;49.986;7.938;2023-03-31T02:31:16;4.50;;;2.00;;
8490;SDS011;4282;49.986;7.938;2023-03-31T02:37:01;4.33;;;2.00;;
8490;SDS011;4282;49.986;7.938;2023-03-31T02:39:31;4.77;;;2.10;;
8490;SDS011;4282;49.986;7.938;2023-03-31T02:42:03;4.53;;;2.00;;
8490;SDS011;4282;49.986;7.938;2023-03-31T02:44:33;6.67;;;1.60;;
8490;SDS011;4282;49.986;7.938;2023-03-31T02:47:02;7.67;;;1.90;;
8490;SDS011;4282;49.986;7.938;2023-03-31T02:49:31;4.73;;;1.90;;
8490;SDS011;4282;49.986;7.938;2023-03-31T02:55:09;5.07;;;2.40;;
8490;SDS011;4282;49.986;7.938;2023-03-31T02:57:49;4.17;;;1.83;;
8490;SDS011;4282;49.986;7.938;2023-03-31T03:00:25;6.00;;;2.20;;
8490;SDS011;4282;49.986;7.938;2023-03-31T03:03:05;5.20;;;1.90;;
8490;SDS011;4282;49.986;7.938;2023-03-31T03:05:42;5.50;;;1.77;;
8490;SDS011;4282;49.986;7.938;2023-03-31T03:08:16;4.90;;;1.80;;
8490;SDS011;4282;49.986;7.938;2023-03-31T03:10:55;5.20;;;1.90;;
8490;SDS011;4282;49.986;7.938;2023-03-31T03:13:31;5.47;;;1.90;;
8490;SDS011;4282;49.986;7.938;2023-03-31T03:16:03;4.67;;;2.30;;
8490;SDS011;4282;49.986;7.938;2023-03-31T03:18:34;5.13;;;2.47;;
8490;SDS011;4282;49.986;7.938;2023-03-31T03:21:03;4.60;;;1.70;;
8490;SDS011;4282;49.986;7.938;2023-03-31T03:23:31;5.47;;;2.53;;
8490;SDS011;4282;49.986;7.938;2023-03-31T03:25:59;4.73;;;2.20;;
8490;SDS011;4282;49.986;7.938;2023-03-31T03:28:30;5.27;;;2.03;;
8490;SDS011;4282;49.986;7.938;2023-03-31T03:30:58;5.67;;;2.33;;
8490;SDS011;4282;49.986;7.938;2023-03-31T03:33:27;5.63;;;1.90;;
8490;SDS011;4282;49.986;7.938;2023-03-31T03:35:55;5.03;;;2.43;;
8490;SDS011;4282;49.986;7.938;2023-03-31T03:38:23;4.00;;;2.10;;
8490;SDS011;4282;49.986;7.938;2023-03-31T03:40:51;4.97;;;2.07;;
8490;SDS011;4282;49.986;7.938;2023-03-31T03:43:20;5.70;;;2.10;;
8490;SDS011;4282;49.986;7.938;2023-03-31T03:45:50;6.43;;;2.07;;
8490;SDS011;4282;49.986;7.938;2023-03-31T03:48:19;6.93;;;2.00;;
8490;SDS011;4282;49.986;7.938;2023-03-31T03:50:47;5.07;;;2.10;;
8490;SDS011;4282;49.986;7.938;2023-03-31T03:53:17;5.73;;;2.10;;
8490;SDS011;4282;49.986;7.938;2023-03-31T03:55:45;4.70;;;1.67;;
8490;SDS011;4282;49.986;7.938;2023-03-31T03:58:14;5.80;;;1.90;;
8490;SDS011;4282;49.986;7.938;2023-03-31T04:00:43;3.70;;;1.90;;
8490;SDS011;4282;49.986;7.938;2023-03-31T04:03:14;8.90;;;1.90;;
8490;SDS011;4282;49.986;7.938;2023-03-31T04:05:43;4.53;;;2.00;;
8490;SDS011;4282;49.986;7.938;2023-03-31T04:08:13;4.50;;;1.63;;
8490;SDS011;4282;49.986;7.938;2023-03-31T04:10:42;7.87;;;1.60;;
8490;SDS011;4282;49.986;7.938;2023-03-31T04:13:13;4.77;;;1.90;;
8490;SDS011;4282;49.986;7.938;2023-03-31T04:15:41;7.00;;;1.60;;
8490;SDS011;4282;49.986;7.938;2023-03-31T04:18:10;5.43;;;1.87;;
8490;SDS011;4282;49.986;7.938;2023-03-31T04:20:49;5.50;;;1.60;;
8490;SDS011;4282;49.986;7.938;2023-03-31T04:23:28;5.40;;;2.10;;
8490;SDS011;4282;49.986;7.938;2023-03-31T04:25:56;6.50;;;1.87;;
8490;SDS011;4282;49.986;7.938;2023-03-31T04:28:24;5.17;;;1.47;;
8490;SDS011;4282;49.986;7.938;2023-03-31T04:30:58;6.23;;;1.53;;
8490;SDS011;4282;49.986;7.938;2023-03-31T04:33:27;5.13;;;1.97;;
8490;SDS011;4282;49.986;7.938;2023-03-31T04:36:00;6.57;;;1.63;;
8490;SDS011;4282;49.986;7.938;2023-03-31T04:38:30;3.17;;;1.57;;
8490;SDS011;4282;49.986;7.938;2023-03-31T04:40:59;4.43;;;2.20;;
8490;SDS011;4282;49.986;7.938;2023-03-31T04:43:27;9.77;;;2.00;;
8490;SDS011;4282;49.986;7.938;2023-03-31T04:45:55;6.43;;;2.33;;
8490;SDS011;4282;49.986;7.938;2023-03-31T04:48:23;4.70;;;2.33;;
8490;SDS011;4282;49.986;7.938;2023-03-31T04:50:51;6.27;;;2.50;;
8490;SDS011;4282;49.986;7.938;2023-03-31T04:53:22;8.83;;;2.50;;
8490;SDS011;4282;49.986;7.938;2023-03-31T04:55:51;9.30;;;2.60;;
8490;SDS011;4282;49.986;7.938;2023-03-31T04:58:19;6.53;;;2.43;;
8490;SDS011;4282;49.986;7.938;2023-03-31T05:00:47;7.03;;;2.87;;
8490;SDS011;4282;49.986;7.938;2023-03-31T05:03:15;8.67;;;2.57;;
8490;SDS011;4282;49.986;7.938;2023-03-31T05:05:44;9.63;;;2.90;;
8490;SDS011;4282;49.986;7.938;2023-03-31T05:08:12;6.80;;;2.73;;
8490;SDS011;4282;49.986;7.938;2023-03-31T05:10:43;6.60;;;2.53;;
8490;SDS011;4282;49.986;7.938;2023-03-31T05:13:11;9.80;;;2.90;;
8490;SDS011;4282;49.986;7.938;2023-03-31T05:15:39;7.37;;;2.77;;
8490;SDS011;4282;49.986;7.938;2023-03-31T05:18:09;6.00;;;2.77;;
8490;SDS011;4282;49.986;7.938;2023-03-31T05:20:37;9.10;;;3.23;;
8490;SDS011;4282;49.986;7.938;2023-03-31T05:23:05;10.97;;;7.67;;
8490;SDS011;4282;49.986;7.938;2023-03-31T05:25:33;13.77;;;5.93;;
8490;SDS011;4282;49.986;7.938;2023-03-31T05:28:04;6.00;;;3.43;;
8490;SDS011;4282;49.986;7.938;2023-03-31T05:30:32;8.60;;;2.80;;
8490;SDS011;4282;49.986;7.938;2023-03-31T05:33:01;7.47;;;2.43;;
8490;SDS011;4282;49.986;7.938;2023-03-31T05:35:29;4.77;;;1.77;;
8490;SDS011;4282;49.986;7.938;2023-03-31T05:37:57;8.23;;;1.70;;
8490;SDS011;4282;49.986;7.938;2023-03-31T05:40:25;5.47;;;2.10;;
8490;SDS011;4282;49.986;7.938;2023-03-31T05:42:53;6.00;;;1.90;;
8490;SDS011;4282;49.986;7.938;2023-03-31T05:45:24;7.50;;;2.13;;
8490;SDS011;4282;49.986;7.938;2023-03-31T05:47:52;7.67;;;1.70;;
8490;SDS011;4282;49.986;7.938;2023-03-31T05:50:21;6.33;;;1.70;;
8490;SDS011;4282;49.986;7.938;2023-03-31T05:52:49;4.03;;;1.70;;
8490;SDS011;4282;49.986;7.938;2023-03-31T05:55:18;5.90;;;1.93;;
8490;SDS011;4282;49.986;7.938;2023-03-31T05:57:46;6.17;;;2.03;;
8490;SDS011;4282;49.986;7.938;2023-03-31T06:00:14;7.77;;;2.40;;
8490;SDS011;4282;49.986;7.938;2023-03-31T06:02:46;10.33;;;1.90;;
8490;SDS011;4282;49.986;7.938;2023-03-31T06:05:15;3.60;;;1.50;;
8490;SDS011;4282;49.986;7.938;2023-03-31T06:07:43;9.70;;;2.33;;
8490;SDS011;4282;49.986;7.938;2023-03-31T06:10:12;8.23;;;2.43;;
8490;SDS011;4282;49.986;7.938;2023-03-31T06:12:40;6.23;;;1.93;;
8490;SDS011;4282;49.986;7.938;2023-03-31T06:15:08;5.37;;;1.60;;
8490;SDS011;4282;49.986;7.938;2023-03-31T06:17:37;6.77;;;1.97;;
8490;SDS011;4282;49.986;7.938;2023-03-31T06:20:08;6.00;;;1.50;;
8490;SDS011;4282;49.986;7.938;2023-03-31T06:22:37;6.13;;;1.53;;
8490;SDS011;4282;49.986;7.938;2023-03-31T06:25:05;7.57;;;1.90;;
8490;SDS011;4282;49.986;7.938;2023-03-31T06:27:34;5.70;;;1.97;;
8490;SDS011;4282;49.986;7.938;2023-03-31T06:30:03;8.03;;;1.70;;
8490;SDS011;4282;49.986;7.938;2023-03-31T06:32:31;5.60;;;1.90;;
8490;SDS011;4282;49.986;7.938;2023-03-31T06:35:00;9.70;;;1.83;;
8490;SDS011;4282;49.986;7.938;2023-03-31T06:37:30;4.13;;;1.70;;
8490;SDS011;4282;49.986;7.938;2023-03-31T06:39:59;7.30;;;1.70;;
8490;SDS011;4282;49.986;7.938;2023-03-31T06:42:28;8.50;;;2.60;;
8490;SDS011;4282;49.986;7.938;2023-03-31T06:44:56;6.27;;;2.00;;
8490;SDS011;4282;49.986;7.938;2023-03-31T06:47:25;7.13;;;2.40;;
8490;SDS011;4282;49.986;7.938;2023-03-31T06:49:53;8.07;;;2.33;;
8490;SDS011;4282;49.986;7.938;2023-03-31T06:52:21;4.33;;;2.03;;
8490;SDS011;4282;49.986;7.938;2023-03-31T06:54:52;5.47;;;2.10;;
8490;SDS011;4282;49.986;7.938;2023-03-31T06:57:20;3.27;;;1.70;;
8490;SDS011;4282;49.986;7.938;2023-03-31T06:59:48;2.60;;;1.70;;
8490;SDS011;4282;49.986;7.938;2023-03-31T07:02:16;5.67;;;2.07;;
8490;SDS011;4282;49.986;7.938;2023-03-31T07:04:45;5.23;;;1.77;;
8490;SDS011;4282;49.986;7.938;2023-03-31T07:07:13;3.33;;;1.50;;
8490;SDS011;4282;49.986;7.938;2023-03-31T07:09:41;5.17;;;1.33;;
8490;SDS011;4282;49.986;7.938;2023-03-31T07:12:12;5.23;;;1.60;;
8490;SDS011;4282;49.986;7.938;2023-03-31T07:14:40;2.87;;;1.40;;
8490;SDS011;4282;49.986;7.938;2023-03-31T07:17:08;3.47;;;1.40;;
8490;SDS011;4282;49.986;7.938;2023-03-31T07:19:36;3.73;;;1.73;;
8490;SDS011;4282;49.986;7.938;2023-03-31T07:22:06;3.30;;;1.40;;
8490;SDS011;4282;49.986;7.938;2023-03-31T07:24:34;4.93;;;1.57;;
8490;SDS011;4282;49.986;7.938;2023-03-31T07:27:02;3.77;;;1.80;;
8490;SDS011;4282;49.986;7.938;2023-03-31T07:29:33;3.27;;;2.00;;
8490;SDS011;4282;49.986;7.938;2023-03-31T07:32:01;4.00;;;1.50;;
8490;SDS011;4282;49.986;7.938;2023-03-31T07:34:29;3.43;;;1.40;;
8490;SDS011;4282;49.986;7.938;2023-03-31T07:36:58;5.70;;;1.97;;
8490;SDS011;4282;49.986;7.938;2023-03-31T07:39:26;1.70;;;1.10;;
8490;SDS011;4282;49.986;7.938;2023-03-31T07:41:54;3.87;;;1.47;;
8490;SDS011;4282;49.986;7.938;2023-03-31T07:44:22;3.50;;;1.37;;
8490;SDS011;4282;49.986;7.938;2023-03-31T07:46:53;5.30;;;1.40;;
8490;SDS011;4282;49.986;7.938;2023-03-31T07:49:22;3.13;;;1.20;;
8490;SDS011;4282;49.986;7.938;2023-03-31T07:51:50;2.50;;;1.00;;
8490;SDS011;4282;49.986;7.938;2023-03-31T07:54:18;4.63;;;1.00;;
8490;SDS011;4282;49.986;7.938;2023-03-31T07:56:47;1.87;;;1.03;;
8490;SDS011;4282;49.986;7.938;2023-03-31T07:59:15;4.00;;;1.20;;
8490;SDS011;4282;49.986;7.938;2023-03-31T08:01:43;3.50;;;1.13;;
8490;SDS011;4282;49.986;7.938;2023-03-31T08:04:14;3.30;;;1.30;;
8490;SDS011;4282;49.986;7.938;2023-03-31T08:06:42;5.57;;;1.40;;
8490;SDS011;4282;49.986;7.938;2023-03-31T08:09:11;4.97;;;1.37;;
8490;SDS011;4282;49.986;7.938;2023-03-31T08:11:40;3.13;;;1.20;;
8490;SDS011;4282;49.986;7.938;2023-03-31T08:14:08;4.10;;;1.27;;
8490;SDS011;4282;49.986;7.938;2023-03-31T08:16:36;5.17;;;1.47;;
8490;SDS011;4282;49.986;7.938;2023-03-31T08:19:05;3.03;;;1.33;;
8490;SDS011;4282;49.986;7.938;2023-03-31T08:21:36;3.77;;;1.73;;
8490;SDS011;4282;49.986;7.938;2023-03-31T08:24:04;3.77;;;1.63;;
8490;SDS011;4282;49.986;7.938;2023-03-31T08:26:32;5.13;;;1.30;;
8490;SDS011;4282;49.986;7.938;2023-03-31T08:29:01;5.43;;;2.00;;
8490;SDS011;4282;49.986;7.938;2023-03-31T08:31:29;4.70;;;1.70;;
8490;SDS011;4282;49.986;7.938;2023-03-31T08:33:57;2.87;;;1.97;;
8490;SDS011;4282;49.986;7.938;2023-03-31T08:36:27;5.07;;;2.13;;
8490;SDS011;4282;49.986;7.938;2023-03-31T08:38:58;5.90;;;3.77;;
8490;SDS011;4282;49.986;7.938;2023-03-31T08:41:31;6.30;;;2.70;;
8490;SDS011;4282;49.986;7.938;2023-03-31T08:44:04;2.97;;;2.30;;
8490;SDS011;4282;49.986;7.938;2023-03-31T08:46:35;7.53;;;3.13;;
8490;SDS011;4282;49.986;7.938;2023-03-31T08:49:03;5.10;;;3.03;;
8490;SDS011;4282;49.986;7.938;2023-03-31T08:51:32;3.13;;;2.50;;
8490;SDS011;4282;49.986;7.938;2023-03-31T08:54:06;3.77;;;2.33;;
8490;SDS011;4282;49.986;7.938;2023-03-31T08:56:39;6.00;;;2.20;;
8490;SDS011;4282;49.986;7.938;2023-03-31T08:59:14;5.10;;;2.10;;
8490;SDS011;4282;49.986;7.938;2023-03-31T09:01:46;4.77;;;2.07;;
8490;SDS011;4282;49.986;7.938;2023-03-31T09:04:21;4.93;;;1.97;;
8490;SDS011;4282;49.986;7.938;2023-03-31T09:06:57;5.50;;;2.23;;
8490;SDS011;4282;49.986;7.938;2023-03-31T09:09:34;5.30;;;1.97;;
8490;SDS011;4282;49.986;7.938;2023-03-31T09:12:09;5.53;;;2.00;;
8490;SDS011;4282;49.986;7.938;2023-03-31T09:14:41;1.77;;;1.47;;
8490;SDS011;4282;49.986;7.938;2023-03-31T09:17:15;6.07;;;1.80;;
8490;SDS011;4282;49.986;7.938;2023-03-31T09:19:48;4.23;;;1.80;;
8490;SDS011;4282;49.986;7.938;2023-03-31T09:22:21;5.67;;;1.67;;
8490;SDS011;4282;49.986;7.938;2023-03-31T09:24:54;4.53;;;2.13;;
8490;SDS011;4282;49.986;7.938;2023-03-31T09:27:25;5.07;;;2.10;;
8490;SDS011;4282;49.986;7.938;2023-03-31T09:29:55;4.80;;;1.80;;
8490;SDS011;4282;49.986;7.938;2023-03-31T09:32:27;5.13;;;1.73;;
8490;SDS011;4282;49.986;7.938;2023-03-31T09:34:58;6.97;;;2.30;;
8490;SDS011;4282;49.986;7.938;2023-03-31T09:37:29;4.50;;;1.70;;
8490;SDS011;4282;49.986;7.938;2023-03-31T09:40:01;7.27;;;1.90;;
8490;SDS011;4282;49.986;7.938;2023-03-31T09:42:35;4.70;;;2.10;;
8490;SDS011;4282;49.986;7.938;2023-03-31T09:45:05;7.63;;;2.23;;
8490;SDS011;4282;49.986;7.938;2023-03-31T09:47:40;7.30;;;2.10;;
8490;SDS011;4282;49.986;7.938;2023-03-31T09:50:09;4.80;;;2.10;;
8490;SDS011;4282;49.986;7.938;2023-03-31T09:52:39;7.80;;;2.27;;
8490;SDS011;4282;49.986;7.938;2023-03-31T09:55:17;4.73;;;1.57;;
8490;SDS011;4282;49.986;7.938;2023-03-31T09:57:48;5.00;;;1.20;;
8490;SDS011;4282;49.986;7.938;2023-03-31T10:00:18;6.10;;;1.20;;
8490;SDS011;4282;49.986;7.938;2023-03-31T10:02:48;3.03;;;1.40;;
8490;SDS011;4282;49.986;7.938;2023-03-31T10:05:18;5.33;;;1.27;;
8490;SDS011;4282;49.986;7.938;2023-03-31T10:08:11;4.40;;;1.70;;
8490;SDS011;4282;49.986;7.938;2023-03-31T10:10:48;7.90;;;1.63;;
8490;SDS011;4282;49.986;7.938;2023-03-31T10:13:18;3.93;;;1.73;;
8490;SDS011;4282;49.986;7.938;2023-03-31T10:15:47;5.43;;;1.83;;
8490;SDS011;4282;49.986;7.938;2023-03-31T10:18:19;4.13;;;1.47;;
8490;SDS011;4282;49.986;7.938;2023-03-31T10:20:49;4.03;;;1.70;;
8490;SDS011;4282;49.986;7.938;2023-03-31T10:23:22;3.63;;;1.27;;
8490;SDS011;4282;49.986;7.938;2023-03-31T10:25:56;3.83;;;1.77;;
8490;SDS011;4282;49.986;7.938;2023-03-31T10:28:24;3.63;;;1.37;;
8490;SDS011;4282;49.986;7.938;2023-03-31T10:30:53;4.10;;;1.23;;
8490;SDS011;4282;49.986;7.938;2023-03-31T10:33:25;5.80;;;1.60;;
8490;SDS011;4282;49.986;7.938;2023-03-31T10:35:55;3.33;;;1.20;;
8490;SDS011;4282;49.986;7.938;2023-03-31T10:38:25;4.37;;;1.43;;
8490;SDS011;4282;49.986;7.938;2023-03-31T10:40:57;4.50;;;1.23;;
8490;SDS011;4282;49.986;7.938;2023-03-31T10:43:27;3.03;;;1.17;;
8490;SDS011;4282;49.986;7.938;2023-03-31T10:45:56;2.83;;;1.20;;
8490;SDS011;4282;49.986;7.938;2023-03-31T10:48:26;4.83;;;1.53;;
8490;SDS011;4282;49.986;7.938;2023-03-31T10:50:57;4.80;;;1.70;;
8490;SDS011;4282;49.986;7.938;2023-03-31T10:53:26;5.23;;;2.30;;
8490;SDS011;4282;49.986;7.938;2023-03-31T10:56:08;4.73;;;1.60;;
8490;SDS011;4282;49.986;7.938;2023-03-31T10:58:53;7.30;;;1.70;;
8490;SDS011;4282;49.986;7.938;2023-03-31T11:01:33;8.30;;;2.10;;
8490;SDS011;4282;49.986;7.938;2023-03-31T11:04:20;3.87;;;1.40;;
8490;SDS011;4282;49.986;7.938;2023-03-31T11:07:06;6.50;;;2.10;;
8490;SDS011;4282;49.986;7.938;2023-03-31T11:09:41;7.23;;;2.23;;
8490;SDS011;4282;49.986;7.938;2023-03-31T11:12:20;8.03;;;3.43;;
8490;SDS011;4282;49.986;7.938;2023-03-31T11:14:54;12.77;;;2.57;;
8490;SDS011;4282;49.986;7.938;2023-03-31T11:17:34;6.40;;;2.23;;
8490;SDS011;4282;49.986;7.938;2023-03-31T11:20:13;5.00;;;1.97;;
8490;SDS011;4282;49.986;7.938;2023-03-31T11:22:45;6.37;;;2.27;;
8490;SDS011;4282;49.986;7.938;2023-03-31T11:25:21;7.30;;;2.30;;
8490;SDS011;4282;49.986;7.938;2023-03-31T11:30:50;8.27;;;2.33;;
8490;SDS011;4282;49.986;7.938;2023-03-31T11:33:25;2.80;;;1.60;;
8490;SDS011;4282;49.986;7.938;2023-03-31T11:36:05;9.03;;;1.90;;
8490;SDS011;4282;49.986;7.938;2023-03-31T11:41:31;7.37;;;2.10;;
8490;SDS011;4282;49.986;7.938;2023-03-31T11:44:04;8.07;;;2.03;;
8490;SDS011;4282;49.986;7.938;2023-03-31T11:46:36;10.17;;;2.30;;
8490;SDS011;4282;49.986;7.938;2023-03-31T11:49:09;10.83;;;2.30;;
8490;SDS011;4282;49.986;7.938;2023-03-31T11:51:42;7.17;;;1.87;;
8490;SDS011;4282;49.986;7.938;2023-03-31T11:54:15;6.37;;;1.30;;
8490;SDS011;4282;49.986;7.938;2023-03-31T11:56:45;3.17;;;1.10;;
8490;SDS011;4282;49.986;7.938;2023-03-31T11:59:16;5.20;;;1.50;;
8490;SDS011;4282;49.986;7.938;2023-03-31T12:01:47;6.40;;;1.40;;
8490;SDS011;4282;49.986;7.938;2023-03-31T12:04:22;7.37;;;1.73;;
8490;SDS011;4282;49.986;7.938;2023-03-31T12:07:00;8.87;;;1.30;;
8490;SDS011;4282;49.986;7.938;2023-03-31T12:09:32;6.20;;;1.57;;
8490;SDS011;4282;49.986;7.938;2023-03-31T12:12:04;4.53;;;1.37;;
8490;SDS011;4282;49.986;7.938;2023-03-31T12:14:39;12.60;;;6.43;;
8490;SDS011;4282;49.986;7.938;2023-03-31T12:17:10;10.40;;;2.53;;
8490;SDS011;4282;49.986;7.938;2023-03-31T12:19:43;5.77;;;1.50;;
8490;SDS011;4282;49.986;7.938;2023-03-31T12:22:14;7.33;;;2.17;;
8490;SDS011;4282;49.986;7.938;2023-03-31T12:24:45;8.20;;;1.87;;
8490;SDS011;4282;49.986;7.938;2023-03-31T12:27:15;6.27;;;1.60;;
8490;SDS011;4282;49.986;7.938;2023-03-31T12:29:50;7.63;;;1.87;;
8490;SDS011;4282;49.986;7.938;2023-03-31T12:32:23;4.30;;;1.47;;
8490;SDS011;4282;49.986;7.938;2023-03-31T12:34:54;5.50;;;1.83;;
8490;SDS011;4282;49.986;7.938;2023-03-31T12:37:33;4.93;;;1.53;;
8490;SDS011;4282;49.986;7.938;2023-03-31T12:40:16;5.03;;;1.70;;
8490;SDS011;4282;49.986;7.938;2023-03-31T12:42:55;5.33;;;1.57;;
8490;SDS011;4282;49.986;7.938;2023-03-31T12:45:32;7.20;;;1.80;;
8490;SDS011;4282;49.986;7.938;2023-03-31T12:48:12;5.47;;;1.40;;
8490;SDS011;4282;49.986;7.938;2023-03-31T12:50:54;4.27;;;1.63;;
8490;SDS011;4282;49.986;7.938;2023-03-31T12:53:31;7.53;;;1.37;;
8490;SDS011;4282;49.986;7.938;2023-03-31T12:56:03;2.97;;;1.00;;
8490;SDS011;4282;49.986;7.938;2023-03-31T12:58:42;3.87;;;1.30;;
8490;SDS011;4282;49.986;7.938;2023-03-31T13:01:15;5.60;;;1.50;;
8490;SDS011;4282;49.986;7.938;2023-03-31T13:03:45;4.30;;;1.13;;
8490;SDS011;4282;49.986;7.938;2023-03-31T13:12:13;4.77;;;1.10;;
8490;SDS011;4282;49.986;7.938;2023-03-31T13:14:43;4.03;;;1.10;;
8490;SDS011;4282;49.986;7.938;2023-03-31T13:17:22;4.27;;;0.97;;
8490;SDS011;4282;49.986;7.938;2023-03-31T13:19:52;3.00;;;1.00;;
8490;SDS011;4282;49.986;7.938;2023-03-31T13:22:31;2.10;;;1.00;;
8490;SDS011;4282;49.986;7.938;2023-03-31T13:27:58;1.83;;;0.60;;
8490;SDS011;4282;49.986;7.938;2023-03-31T13:30:44;3.00;;;1.23;;
8490;SDS011;4282;49.986;7.938;2023-03-31T13:33:21;2.63;;;0.90;;
8490;SDS011;4282;49.986;7.938;2023-03-31T13:35:51;3.17;;;0.90;;
8490;SDS011;4282;49.986;7.938;2023-03-31T13:38:29;2.50;;;0.80;;
8490;SDS011;4282;49.986;7.938;2023-03-31T13:41:07;1.60;;;0.80;;
8490;SDS011;4282;49.986;7.938;2023-03-31T13:43:47;3.43;;;0.80;;
8490;SDS011;4282;49.986;7.938;2023-03-31T13:46:30;5.10;;;1.10;;
8490;SDS011;4282;49.986;7.938;2023-03-31T13:49:15;3.43;;;0.93;;
8490;SDS011;4282;49.986;7.938;2023-03-31T13:52:08;2.90;;;0.90;;
8490;SDS011;4282;49.986;7.938;2023-03-31T13:54:43;5.07;;;1.57;;
8490;SDS011;4282;49.986;7.938;2023-03-31T13:57:27;3.77;;;1.13;;
8490;SDS011;4282;49.986;7.938;2023-03-31T14:00:07;2.23;;;0.90;;
8490;SDS011;4282;49.986;7.938;2023-03-31T14:02:46;4.37;;;1.60;;
8490;SDS011;4282;49.986;7.938;2023-03-31T14:05:27;3.93;;;1.10;;
8490;SDS011;4282;49.986;7.938;2023-03-31T14:07:57;3.57;;;1.17;;
8490;SDS011;4282;49.986;7.938;2023-03-31T14:10:27;2.67;;;0.77;;
8490;SDS011;4282;49.986;7.938;2023-03-31T14:13:04;3.30;;;1.70;;
8490;SDS011;4282;49.986;7.938;2023-03-31T14:15:33;4.27;;;1.67;;
8490;SDS011;4282;49.986;7.938;2023-03-31T14:18:02;7.13;;;1.60;;
8490;SDS011;4282;49.986;7.938;2023-03-31T14:20:36;3.57;;;1.63;;
8490;SDS011;4282;49.986;7.938;2023-03-31T14:23:11;4.37;;;1.20;;
8490;SDS011;4282;49.986;7.938;2023-03-31T14:25:48;3.20;;;1.30;;
8490;SDS011;4282;49.986;7.938;2023-03-31T14:28:34;6.73;;;1.80;;
8490;SDS011;4282;49.986;7.938;2023-03-31T14:31:14;5.03;;;1.47;;
8490;SDS011;4282;49.986;7.938;2023-03-31T14:33:47;1.63;;;0.97;;
8490;SDS011;4282;49.986;7.938;2023-03-31T14:36:25;4.20;;;0.67;;
8490;SDS011;4282;49.986;7.938;2023-03-31T14:39:00;2.33;;;0.73;;
8490;SDS011;4282;49.986;7.938;2023-03-31T14:41:30;2.70;;;0.70;;
8490;SDS011;4282;49.986;7.938;2023-03-31T14:44:02;6.37;;;0.90;;
8490;SDS011;4282;49.986;7.938;2023-03-31T14:46:35;4.53;;;0.83;;
8490;SDS011;4282;49.986;7.938;2023-03-31T14:49:05;2.00;;;0.50;;
8490;SDS011;4282;49.986;7.938;2023-03-31T14:51:36;1.90;;;0.60;;
8490;SDS011;4282;49.986;7.938;2023-03-31T14:54:13;2.53;;;0.70;;
8490;SDS011;4282;49.986;7.938;2023-03-31T14:56:42;2.00;;;0.90;;
8490;SDS011;4282;49.986;7.938;2023-03-31T14:59:13;3.67;;;0.80;;
8490;SDS011;4282;49.986;7.938;2023-03-31T15:01:45;1.70;;;0.80;;
8490;SDS011;4282;49.986;7.938;2023-03-31T15:04:15;4.17;;;1.10;;
8490;SDS011;4282;49.986;7.938;2023-03-31T15:06:47;3.20;;;0.93;;
8490;SDS011;4282;49.986;7.938;2023-03-31T15:09:18;2.00;;;0.70;;
8490;SDS011;4282;49.986;7.938;2023-03-31T15:11:47;2.33;;;0.73;;
8490;SDS011;4282;49.986;7.938;2023-03-31T15:14:21;3.57;;;0.63;;
8490;SDS011;4282;49.986;7.938;2023-03-31T15:16:49;1.07;;;0.60;;
8490;SDS011;4282;49.986;7.938;2023-03-31T15:19:18;4.10;;;1.00;;
8490;SDS011;4282;49.986;7.938;2023-03-31T15:21:55;3.20;;;1.00;;
8490;SDS011;4282;49.986;7.938;2023-03-31T15:24:26;3.23;;;1.60;;
8490;SDS011;4282;49.986;7.938;2023-03-31T15:26:55;4.20;;;1.40;;
8490;SDS011;4282;49.986;7.938;2023-03-31T15:29:27;4.43;;;1.70;;
8490;SDS011;4282;49.986;7.938;2023-03-31T15:31:59;2.67;;;1.00;;
8490;SDS011;4282;49.986;7.938;2023-03-31T15:34:28;3.47;;;1.73;;
8490;SDS011;4282;49.986;7.938;2023-03-31T15:37:00;4.63;;;1.90;;
8490;SDS011;4282;49.986;7.938;2023-03-31T15:39:29;4.00;;;1.80;;
8490;SDS011;4282;49.986;7.938;2023-03-31T15:41:59;2.87;;;1.20;;
8490;SDS011;4282;49.986;7.938;2023-03-31T15:44:38;4.10;;;1.77;;
8490;SDS011;4282;49.986;7.938;2023-03-31T15:47:12;5.87;;;1.70;;
8490;SDS011;4282;49.986;7.938;2023-03-31T15:49:51;1.53;;;1.30;;
8490;SDS011;4282;49.986;7.938;2023-03-31T15:52:25;4.77;;;1.33;;
8490;SDS011;4282;49.986;7.938;2023-03-31T15:54:55;4.00;;;1.93;;
8490;SDS011;4282;49.986;7.938;2023-03-31T15:57:29;5.80;;;1.37;;
8490;SDS011;4282;49.986;7.938;2023-03-31T15:59:59;6.70;;;1.43;;
8490;SDS011;4282;49.986;7.938;2023-03-31T16:02:33;6.70;;;2.30;;
8490;SDS011;4282;49.986;7.938;2023-03-31T16:05:06;5.33;;;1.57;;
8490;SDS011;4282;49.986;7.938;2023-03-31T16:07:37;6.10;;;1.73;;
8490;SDS011;4282;49.986;7.938;2023-03-31T16:10:13;4.37;;;0.80;;